sensor_id;sensor_type;location;lat;lon;timestamp;P1;durP1;ratioP1;P2;durP2;ratioP2
9809;SDS011;4944;52.514;13.192;2022-07-21T00:01:36;6.43;;;5.82;;
9809;SDS011;4944;52.514;13.192;2022-07-21T00:04:03;7.53;;;5.80;;
9809;SDS011;4944;52.514;13.192;2022-07-21T00:06:30;7.68;;;5.30;;
9809;SDS011;4944;52.514;13.192;2022-07-21T00:08:58;5.65;;;5.15;;
9809;SDS011;4944;52.514;13.192;2022-07-21T00:11:25;6.15;;;5.47;;
9809;SDS011;4944;52.514;13.192;2022-07-21T00:13:51;5.65;;;5.25;;
9809;SDS011;4944;52.514;13.192;2022-07-21T00:16:18;7.97;;;5.40;;
9809;SDS011;4944;52.514;13.192;2022-07-21T00:18:46;5.47;;;4.95;;
9809;SDS011;4944;52.514;13.192;2022-07-21T00:21:12;6.55;;;5.05;;
9809;SDS011;4944;52.514;13.192;2022-07-21T00:23:39;9.02;;;5.25;;
9809;SDS011;4944;52.514;13.192;2022-07-21T00:26:07;5.25;;;4.78;;
9809;SDS011;4944;52.514;13.192;2022-07-21T00:28:34;6.35;;;4.80;;
9809;SDS011;4944;52.514;13.192;2022-07-21T00:31:01;6.05;;;4.82;;
9809;SDS011;4944;52.514;13.192;2022-07-21T00:33:30;5.97;;;4.97;;
9809;SDS011;4944;52.514;13.192;2022-07-21T00:35:57;7.18;;;4.80;;
9809;SDS011;4944;52.514;13.192;2022-07-21T00:38:24;5.55;;;5.10;;
9809;SDS011;4944;52.514;13.192;2022-07-21T00:40:51;5.68;;;4.82;;
9809;SDS011;4944;52.514;13.192;2022-07-21T00:43:19;5.15;;;4.65;;
9809;SDS011;4944;52.514;13.192;2022-07-21T00:45:46;5.65;;;5.15;;
9809;SDS011;4944;52.514;13.192;2022-07-21T00:48:13;5.93;;;5.40;;
9809;SDS011;4944;52.514;13.192;2022-07-21T00:50:39;6.55;;;5.10;;
9809;SDS011;4944;52.514;13.192;2022-07-21T00:53:06;6.85;;;4.82;;
9809;SDS011;4944;52.514;13.192;2022-07-21T00:55:33;5.97;;;4.97;;
9809;SDS011;4944;52.514;13.192;2022-07-21T00:58:00;7.47;;;5.13;;
9809;SDS011;4944;52.514;13.192;2022-07-21T01:00:30;7.35;;;4.90;;
9809;SDS011;4944;52.514;13.192;2022-07-21T01:02:58;6.82;;;4.50;;
9809;SDS011;4944;52.514;13.192;2022-07-21T01:05:25;7.88;;;5.05;;
9809;SDS011;4944;52.514;13.192;2022-07-21T01:07:52;7.18;;;5.45;;
9809;SDS011;4944;52.514;13.192;2022-07-21T01:10:24;6.40;;;5.15;;
9809;SDS011;4944;52.514;13.192;2022-07-21T01:12:51;5.93;;;5.30;;
9809;SDS011;4944;52.514;13.192;2022-07-21T01:15:18;6.35;;;5.25;;
9809;SDS011;4944;52.514;13.192;2022-07-21T01:17:48;8.50;;;5.68;;
9809;SDS011;4944;52.514;13.192;2022-07-21T01:20:16;9.93;;;5.35;;
9809;SDS011;4944;52.514;13.192;2022-07-21T01:22:47;5.45;;;4.95;;
9809;SDS011;4944;52.514;13.192;2022-07-21T01:25:16;11.00;;;5.40;;
9809;SDS011;4944;52.514;13.192;2022-07-21T01:27:44;6.10;;;5.07;;
9809;SDS011;4944;52.514;13.192;2022-07-21T01:30:11;7.45;;;5.28;;
9809;SDS011;4944;52.514;13.192;2022-07-21T01:32:39;7.30;;;5.68;;
9809;SDS011;4944;52.514;13.192;2022-07-21T01:35:08;8.10;;;5.97;;
9809;SDS011;4944;52.514;13.192;2022-07-21T01:37:37;6.50;;;5.40;;
9809;SDS011;4944;52.514;13.192;2022-07-21T01:40:09;6.28;;;5.70;;
9809;SDS011;4944;52.514;13.192;2022-07-21T01:42:54;6.40;;;5.35;;
9809;SDS011;4944;52.514;13.192;2022-07-21T01:45:21;8.48;;;5.75;;
9809;SDS011;4944;52.514;13.192;2022-07-21T01:47:48;7.35;;;5.30;;
9809;SDS011;4944;52.514;13.192;2022-07-21T01:50:16;8.48;;;5.88;;
9809;SDS011;4944;52.514;13.192;2022-07-21T01:52:43;6.47;;;5.30;;
9809;SDS011;4944;52.514;13.192;2022-07-21T01:55:12;6.18;;;5.22;;
9809;SDS011;4944;52.514;13.192;2022-07-21T01:57:39;8.27;;;5.38;;
9809;SDS011;4944;52.514;13.192;2022-07-21T02:00:06;5.85;;;5.35;;
9809;SDS011;4944;52.514;13.192;2022-07-21T02:02:35;9.38;;;6.05;;
9809;SDS011;4944;52.514;13.192;2022-07-21T02:05:04;8.93;;;5.63;;
9809;SDS011;4944;52.514;13.192;2022-07-21T02:07:31;8.45;;;5.32;;
9809;SDS011;4944;52.514;13.192;2022-07-21T02:09:58;6.05;;;5.13;;
9809;SDS011;4944;52.514;13.192;2022-07-21T02:12:26;5.95;;;4.60;;
9809;SDS011;4944;52.514;13.192;2022-07-21T02:14:53;8.40;;;5.50;;
9809;SDS011;4944;52.514;13.192;2022-07-21T02:17:20;9.90;;;4.90;;
9809;SDS011;4944;52.514;13.192;2022-07-21T02:19:47;7.97;;;5.43;;
9809;SDS011;4944;52.514;13.192;2022-07-21T02:22:14;8.23;;;5.13;;
9809;SDS011;4944;52.514;13.192;2022-07-21T02:24:40;10.65;;;5.53;;
9809;SDS011;4944;52.514;13.192;2022-07-21T02:27:07;7.43;;;5.28;;
9809;SDS011;4944;52.514;13.192;2022-07-21T02:29:36;5.57;;;5.07;;
9809;SDS011;4944;52.514;13.192;2022-07-21T02:32:03;5.50;;;4.93;;
9809;SDS011;4944;52.514;13.192;2022-07-21T02:34:30;5.55;;;5.03;;
9809;SDS011;4944;52.514;13.192;2022-07-21T02:36:57;6.32;;;4.95;;
9809;SDS011;4944;52.514;13.192;2022-07-21T02:39:24;5.75;;;5.00;;
9809;SDS011;4944;52.514;13.192;2022-07-21T02:41:51;7.75;;;4.80;;
9809;SDS011;4944;52.514;13.192;2022-07-21T02:44:18;9.95;;;4.97;;
9809;SDS011;4944;52.514;13.192;2022-07-21T02:46:46;5.22;;;4.80;;
9809;SDS011;4944;52.514;13.192;2022-07-21T02:49:12;5.05;;;4.57;;
9809;SDS011;4944;52.514;13.192;2022-07-21T02:51:39;6.72;;;4.95;;
9809;SDS011;4944;52.514;13.192;2022-07-21T02:54:06;8.25;;;4.65;;
9809;SDS011;4944;52.514;13.192;2022-07-21T02:56:33;6.80;;;4.90;;
9809;SDS011;4944;52.514;13.192;2022-07-21T02:59:00;7.85;;;4.65;;
9809;SDS011;4944;52.514;13.192;2022-07-21T03:01:27;8.77;;;4.57;;
9809;SDS011;4944;52.514;13.192;2022-07-21T03:03:55;6.63;;;4.60;;
9809;SDS011;4944;52.514;13.192;2022-07-21T03:06:22;4.93;;;4.38;;
9809;SDS011;4944;52.514;13.192;2022-07-21T03:08:48;5.80;;;4.70;;
9809;SDS011;4944;52.514;13.192;2022-07-21T03:11:15;8.18;;;4.50;;
9809;SDS011;4944;52.514;13.192;2022-07-21T03:13:42;7.20;;;4.45;;
9809;SDS011;4944;52.514;13.192;2022-07-21T03:16:09;5.07;;;4.60;;
9809;SDS011;4944;52.514;13.192;2022-07-21T03:18:36;4.97;;;4.53;;
9809;SDS011;4944;52.514;13.192;2022-07-21T03:21:07;6.05;;;4.75;;
9809;SDS011;4944;52.514;13.192;2022-07-21T03:23:34;5.43;;;4.50;;
9809;SDS011;4944;52.514;13.192;2022-07-21T03:26:01;6.32;;;5.35;;
9809;SDS011;4944;52.514;13.192;2022-07-21T03:28:30;5.45;;;4.82;;
9809;SDS011;4944;52.514;13.192;2022-07-21T03:30:57;5.20;;;4.32;;
9809;SDS011;4944;52.514;13.192;2022-07-21T03:33:24;8.15;;;4.95;;
9809;SDS011;4944;52.514;13.192;2022-07-21T03:35:51;6.97;;;4.70;;
9809;SDS011;4944;52.514;13.192;2022-07-21T03:38:19;7.40;;;5.20;;
9809;SDS011;4944;52.514;13.192;2022-07-21T03:40:46;10.57;;;5.00;;
9809;SDS011;4944;52.514;13.192;2022-07-21T03:43:13;9.20;;;4.88;;
9809;SDS011;4944;52.514;13.192;2022-07-21T03:45:40;7.30;;;4.80;;
9809;SDS011;4944;52.514;13.192;2022-07-21T03:48:07;5.43;;;4.45;;
9809;SDS011;4944;52.514;13.192;2022-07-21T03:50:35;5.20;;;4.53;;
9809;SDS011;4944;52.514;13.192;2022-07-21T03:53:04;9.70;;;4.93;;
9809;SDS011;4944;52.514;13.192;2022-07-21T03:55:33;5.38;;;4.70;;
9809;SDS011;4944;52.514;13.192;2022-07-21T03:58:01;4.88;;;4.40;;
9809;SDS011;4944;52.514;13.192;2022-07-21T04:00:30;5.70;;;4.53;;
9809;SDS011;4944;52.514;13.192;2022-07-21T04:02:59;4.85;;;4.45;;
9809;SDS011;4944;52.514;13.192;2022-07-21T04:05:27;5.75;;;5.03;;
9809;SDS011;4944;52.514;13.192;2022-07-21T04:07:54;8.00;;;4.70;;
9809;SDS011;4944;52.514;13.192;2022-07-21T04:10:23;5.60;;;5.07;;
9809;SDS011;4944;52.514;13.192;2022-07-21T04:12:53;5.15;;;4.63;;
9809;SDS011;4944;52.514;13.192;2022-07-21T04:15:20;6.20;;;4.70;;
9809;SDS011;4944;52.514;13.192;2022-07-21T04:17:48;5.00;;;4.57;;
9809;SDS011;4944;52.514;13.192;2022-07-21T04:20:15;5.55;;;4.95;;
9809;SDS011;4944;52.514;13.192;2022-07-21T04:22:43;8.40;;;4.65;;
9809;SDS011;4944;52.514;13.192;2022-07-21T04:25:10;7.70;;;5.10;;
9809;SDS011;4944;52.514;13.192;2022-07-21T04:27:38;5.45;;;4.82;;
9809;SDS011;4944;52.514;13.192;2022-07-21T04:30:07;10.77;;;6.95;;
9809;SDS011;4944;52.514;13.192;2022-07-21T04:32:36;8.48;;;7.68;;
9809;SDS011;4944;52.514;13.192;2022-07-21T04:35:03;10.93;;;7.25;;
9809;SDS011;4944;52.514;13.192;2022-07-21T04:37:32;11.30;;;7.00;;
9809;SDS011;4944;52.514;13.192;2022-07-21T04:40:00;11.65;;;7.65;;
9809;SDS011;4944;52.514;13.192;2022-07-21T04:42:27;15.77;;;7.97;;
9809;SDS011;4944;52.514;13.192;2022-07-21T04:44:54;12.85;;;9.10;;
9809;SDS011;4944;52.514;13.192;2022-07-21T04:47:22;11.60;;;10.35;;
9809;SDS011;4944;52.514;13.192;2022-07-21T04:49:49;12.85;;;11.18;;
9809;SDS011;4944;52.514;13.192;2022-07-21T04:52:16;20.27;;;12.82;;
9809;SDS011;4944;52.514;13.192;2022-07-21T04:54:42;17.60;;;12.70;;
9809;SDS011;4944;52.514;13.192;2022-07-21T04:57:09;16.15;;;12.65;;
9809;SDS011;4944;52.514;13.192;2022-07-21T04:59:36;16.92;;;14.07;;
9809;SDS011;4944;52.514;13.192;2022-07-21T05:02:03;15.80;;;13.50;;
9809;SDS011;4944;52.514;13.192;2022-07-21T05:04:32;16.35;;;13.80;;
9809;SDS011;4944;52.514;13.192;2022-07-21T05:06:59;17.05;;;14.65;;
9809;SDS011;4944;52.514;13.192;2022-07-21T05:09:26;15.70;;;14.13;;
9809;SDS011;4944;52.514;13.192;2022-07-21T05:11:53;16.70;;;14.95;;
9809;SDS011;4944;52.514;13.192;2022-07-21T05:14:19;21.50;;;14.85;;
9809;SDS011;4944;52.514;13.192;2022-07-21T05:16:46;16.33;;;14.63;;
9809;SDS011;4944;52.514;13.192;2022-07-21T05:19:13;18.35;;;14.82;;
9809;SDS011;4944;52.514;13.192;2022-07-21T05:21:41;20.17;;;15.00;;
9809;SDS011;4944;52.514;13.192;2022-07-21T05:24:10;19.05;;;15.60;;
9809;SDS011;4944;52.514;13.192;2022-07-21T05:26:37;18.67;;;14.90;;
9809;SDS011;4944;52.514;13.192;2022-07-21T05:29:03;16.63;;;14.05;;
9809;SDS011;4944;52.514;13.192;2022-07-21T05:31:30;17.45;;;15.52;;
9809;SDS011;4944;52.514;13.192;2022-07-21T05:33:57;16.27;;;14.48;;
9809;SDS011;4944;52.514;13.192;2022-07-21T05:36:24;18.00;;;14.80;;
9809;SDS011;4944;52.514;13.192;2022-07-21T05:38:52;17.00;;;14.90;;
9809;SDS011;4944;52.514;13.192;2022-07-21T05:41:19;21.15;;;15.65;;
9809;SDS011;4944;52.514;13.192;2022-07-21T05:43:46;19.83;;;15.95;;
9809;SDS011;4944;52.514;13.192;2022-07-21T05:46:13;17.58;;;15.48;;
9809;SDS011;4944;52.514;13.192;2022-07-21T05:48:40;18.60;;;15.40;;
9809;SDS011;4944;52.514;13.192;2022-07-21T05:51:06;19.00;;;15.43;;
9809;SDS011;4944;52.514;13.192;2022-07-21T05:53:33;17.02;;;15.00;;
9809;SDS011;4944;52.514;13.192;2022-07-21T05:56:01;18.85;;;15.13;;
9809;SDS011;4944;52.514;13.192;2022-07-21T05:58:32;16.92;;;15.25;;
9809;SDS011;4944;52.514;13.192;2022-07-21T06:00:59;16.73;;;14.15;;
9809;SDS011;4944;52.514;13.192;2022-07-21T06:03:37;15.40;;;13.73;;
9809;SDS011;4944;52.514;13.192;2022-07-21T06:06:05;19.95;;;14.23;;
9809;SDS011;4944;52.514;13.192;2022-07-21T06:08:32;16.58;;;14.82;;
9809;SDS011;4944;52.514;13.192;2022-07-21T06:10:59;16.48;;;14.68;;
9809;SDS011;4944;52.514;13.192;2022-07-21T06:13:29;17.98;;;14.48;;
9809;SDS011;4944;52.514;13.192;2022-07-21T06:15:56;14.82;;;13.45;;
9809;SDS011;4944;52.514;13.192;2022-07-21T06:18:23;21.23;;;13.93;;
9809;SDS011;4944;52.514;13.192;2022-07-21T06:20:50;17.40;;;14.27;;
9809;SDS011;4944;52.514;13.192;2022-07-21T06:23:17;15.77;;;14.18;;
9809;SDS011;4944;52.514;13.192;2022-07-21T06:25:43;17.35;;;14.00;;
9809;SDS011;4944;52.514;13.192;2022-07-21T06:28:12;21.13;;;13.23;;
9809;SDS011;4944;52.514;13.192;2022-07-21T06:30:38;15.23;;;13.70;;
9809;SDS011;4944;52.514;13.192;2022-07-21T06:33:06;14.27;;;12.75;;
9809;SDS011;4944;52.514;13.192;2022-07-21T06:35:32;14.45;;;12.98;;
9809;SDS011;4944;52.514;13.192;2022-07-21T06:37:59;15.05;;;13.15;;
9809;SDS011;4944;52.514;13.192;2022-07-21T06:40:26;18.33;;;13.13;;
9809;SDS011;4944;52.514;13.192;2022-07-21T06:42:53;14.57;;;12.80;;
9809;SDS011;4944;52.514;13.192;2022-07-21T06:45:22;14.95;;;12.68;;
9809;SDS011;4944;52.514;13.192;2022-07-21T06:47:49;14.20;;;12.82;;
9809;SDS011;4944;52.514;13.192;2022-07-21T06:50:16;16.63;;;13.23;;
9809;SDS011;4944;52.514;13.192;2022-07-21T06:52:43;16.00;;;12.80;;
9809;SDS011;4944;52.514;13.192;2022-07-21T06:55:10;14.25;;;12.95;;
9809;SDS011;4944;52.514;13.192;2022-07-21T06:57:37;15.68;;;13.00;;
9809;SDS011;4944;52.514;13.192;2022-07-21T07:00:04;15.95;;;12.80;;
9809;SDS011;4944;52.514;13.192;2022-07-21T07:02:33;14.13;;;12.18;;
9809;SDS011;4944;52.514;13.192;2022-07-21T07:05:00;13.13;;;11.75;;
9809;SDS011;4944;52.514;13.192;2022-07-21T07:07:27;14.93;;;12.32;;
9809;SDS011;4944;52.514;13.192;2022-07-21T07:09:55;13.02;;;11.85;;
9809;SDS011;4944;52.514;13.192;2022-07-21T07:12:22;14.02;;;12.15;;
9809;SDS011;4944;52.514;13.192;2022-07-21T07:14:49;14.93;;;12.20;;
9809;SDS011;4944;52.514;13.192;2022-07-21T07:17:16;12.98;;;11.73;;
9809;SDS011;4944;52.514;13.192;2022-07-21T07:19:45;14.93;;;12.38;;
9809;SDS011;4944;52.514;13.192;2022-07-21T07:22:12;13.50;;;11.57;;
9809;SDS011;4944;52.514;13.192;2022-07-21T07:24:39;13.52;;;12.10;;
9809;SDS011;4944;52.514;13.192;2022-07-21T07:27:06;14.43;;;11.32;;
9809;SDS011;4944;52.514;13.192;2022-07-21T07:29:33;14.18;;;12.30;;
9809;SDS011;4944;52.514;13.192;2022-07-21T07:32:00;13.07;;;11.75;;
9809;SDS011;4944;52.514;13.192;2022-07-21T07:34:27;12.77;;;11.50;;
9809;SDS011;4944;52.514;13.192;2022-07-21T07:36:55;12.57;;;11.27;;
9809;SDS011;4944;52.514;13.192;2022-07-21T07:39:22;16.35;;;11.30;;
9809;SDS011;4944;52.514;13.192;2022-07-21T07:41:49;17.35;;;10.98;;
9809;SDS011;4944;52.514;13.192;2022-07-21T07:44:15;14.10;;;11.43;;
9809;SDS011;4944;52.514;13.192;2022-07-21T07:46:42;13.98;;;10.05;;
9809;SDS011;4944;52.514;13.192;2022-07-21T07:49:09;12.50;;;10.35;;
9809;SDS011;4944;52.514;13.192;2022-07-21T07:51:36;11.63;;;10.07;;
9809;SDS011;4944;52.514;13.192;2022-07-21T07:54:04;11.95;;;10.57;;
9809;SDS011;4944;52.514;13.192;2022-07-21T07:56:31;11.57;;;10.48;;
9809;SDS011;4944;52.514;13.192;2022-07-21T07:58:58;12.90;;;10.13;;
9809;SDS011;4944;52.514;13.192;2022-07-21T08:01:25;11.15;;;10.15;;
9809;SDS011;4944;52.514;13.192;2022-07-21T08:03:52;16.13;;;11.00;;
9809;SDS011;4944;52.514;13.192;2022-07-21T08:06:18;19.00;;;10.73;;
9809;SDS011;4944;52.514;13.192;2022-07-21T08:08:45;10.80;;;9.60;;
9809;SDS011;4944;52.514;13.192;2022-07-21T08:11:13;12.48;;;10.15;;
9809;SDS011;4944;52.514;13.192;2022-07-21T08:13:40;13.48;;;10.55;;
9809;SDS011;4944;52.514;13.192;2022-07-21T08:16:08;11.05;;;9.90;;
9809;SDS011;4944;52.514;13.192;2022-07-21T08:18:37;10.77;;;9.75;;
9809;SDS011;4944;52.514;13.192;2022-07-21T08:21:07;11.90;;;9.68;;
9809;SDS011;4944;52.514;13.192;2022-07-21T08:23:34;11.93;;;9.38;;
9809;SDS011;4944;52.514;13.192;2022-07-21T08:26:01;11.10;;;9.80;;
9809;SDS011;4944;52.514;13.192;2022-07-21T08:28:32;14.02;;;10.95;;
9809;SDS011;4944;52.514;13.192;2022-07-21T08:30:59;12.77;;;9.55;;
9809;SDS011;4944;52.514;13.192;2022-07-21T08:33:26;9.70;;;8.70;;
9809;SDS011;4944;52.514;13.192;2022-07-21T08:35:53;16.50;;;9.65;;
9809;SDS011;4944;52.514;13.192;2022-07-21T08:38:20;10.38;;;9.18;;
9809;SDS011;4944;52.514;13.192;2022-07-21T08:40:47;9.90;;;8.93;;
9809;SDS011;4944;52.514;13.192;2022-07-21T08:43:14;13.75;;;9.25;;
9809;SDS011;4944;52.514;13.192;2022-07-21T08:45:44;9.25;;;8.35;;
9809;SDS011;4944;52.514;13.192;2022-07-21T08:48:11;13.00;;;8.80;;
9809;SDS011;4944;52.514;13.192;2022-07-21T08:50:43;10.80;;;9.00;;
9809;SDS011;4944;52.514;13.192;2022-07-21T08:53:10;10.48;;;8.82;;
9809;SDS011;4944;52.514;13.192;2022-07-21T08:55:37;10.25;;;8.23;;
9809;SDS011;4944;52.514;13.192;2022-07-21T08:58:06;11.65;;;8.93;;
9809;SDS011;4944;52.514;13.192;2022-07-21T09:00:34;12.23;;;8.98;;
9809;SDS011;4944;52.514;13.192;2022-07-21T09:03:10;9.70;;;8.73;;
9809;SDS011;4944;52.514;13.192;2022-07-21T09:05:39;11.88;;;9.20;;
9809;SDS011;4944;52.514;13.192;2022-07-21T09:08:06;9.55;;;8.32;;
9809;SDS011;4944;52.514;13.192;2022-07-21T09:10:33;10.93;;;8.90;;
9809;SDS011;4944;52.514;13.192;2022-07-21T09:13:02;9.50;;;8.52;;
9809;SDS011;4944;52.514;13.192;2022-07-21T09:15:30;10.35;;;8.32;;
9809;SDS011;4944;52.514;13.192;2022-07-21T09:18:05;9.85;;;8.45;;
9809;SDS011;4944;52.514;13.192;2022-07-21T09:20:39;10.27;;;8.50;;
9809;SDS011;4944;52.514;13.192;2022-07-21T09:23:16;10.07;;;8.80;;
9809;SDS011;4944;52.514;13.192;2022-07-21T09:25:45;8.90;;;7.72;;
9809;SDS011;4944;52.514;13.192;2022-07-21T09:28:14;8.77;;;7.47;;
9809;SDS011;4944;52.514;13.192;2022-07-21T09:30:53;9.15;;;8.25;;
9809;SDS011;4944;52.514;13.192;2022-07-21T09:33:27;9.23;;;7.80;;
9809;SDS011;4944;52.514;13.192;2022-07-21T09:36:06;7.00;;;6.38;;
9809;SDS011;4944;52.514;13.192;2022-07-21T09:38:39;7.63;;;6.80;;
9809;SDS011;4944;52.514;13.192;2022-07-21T09:41:09;8.32;;;6.78;;
9809;SDS011;4944;52.514;13.192;2022-07-21T09:43:38;7.57;;;6.85;;
9809;SDS011;4944;52.514;13.192;2022-07-21T09:46:11;9.00;;;7.00;;
9809;SDS011;4944;52.514;13.192;2022-07-21T09:48:42;7.20;;;6.22;;
9809;SDS011;4944;52.514;13.192;2022-07-21T09:51:24;6.43;;;5.82;;
9809;SDS011;4944;52.514;13.192;2022-07-21T09:53:53;14.38;;;6.95;;
9809;SDS011;4944;52.514;13.192;2022-07-21T09:56:23;6.43;;;5.82;;
9809;SDS011;4944;52.514;13.192;2022-07-21T09:58:51;9.52;;;5.93;;
9809;SDS011;4944;52.514;13.192;2022-07-21T10:01:19;8.02;;;6.00;;
9809;SDS011;4944;52.514;13.192;2022-07-21T10:03:49;6.72;;;5.90;;
9809;SDS011;4944;52.514;13.192;2022-07-21T10:06:17;6.57;;;5.97;;
9809;SDS011;4944;52.514;13.192;2022-07-21T10:08:45;10.10;;;5.68;;
9809;SDS011;4944;52.514;13.192;2022-07-21T10:11:12;8.32;;;5.63;;
9809;SDS011;4944;52.514;13.192;2022-07-21T10:13:39;5.88;;;5.32;;
9809;SDS011;4944;52.514;13.192;2022-07-21T10:16:08;6.90;;;5.50;;
9809;SDS011;4944;52.514;13.192;2022-07-21T10:18:38;8.48;;;6.18;;
9809;SDS011;4944;52.514;13.192;2022-07-21T10:21:14;6.13;;;5.38;;
9809;SDS011;4944;52.514;13.192;2022-07-21T10:23:49;5.90;;;5.30;;
9809;SDS011;4944;52.514;13.192;2022-07-21T10:26:19;5.55;;;4.72;;
9809;SDS011;4944;52.514;13.192;2022-07-21T10:28:46;8.25;;;5.63;;
9809;SDS011;4944;52.514;13.192;2022-07-21T10:31:14;5.60;;;5.20;;
9809;SDS011;4944;52.514;13.192;2022-07-21T10:33:59;5.57;;;4.97;;
9809;SDS011;4944;52.514;13.192;2022-07-21T10:36:45;5.25;;;4.72;;
9809;SDS011;4944;52.514;13.192;2022-07-21T10:41:58;6.13;;;4.90;;
9809;SDS011;4944;52.514;13.192;2022-07-21T10:44:43;5.53;;;4.60;;
9809;SDS011;4944;52.514;13.192;2022-07-21T10:47:14;8.80;;;4.78;;
9809;SDS011;4944;52.514;13.192;2022-07-21T10:49:47;8.30;;;4.85;;
9809;SDS011;4944;52.514;13.192;2022-07-21T10:55:18;7.35;;;5.13;;
9809;SDS011;4944;52.514;13.192;2022-07-21T11:00:52;7.43;;;5.15;;
9809;SDS011;4944;52.514;13.192;2022-07-21T11:03:20;7.60;;;4.78;;
9809;SDS011;4944;52.514;13.192;2022-07-21T11:09:06;10.05;;;5.13;;
9809;SDS011;4944;52.514;13.192;2022-07-21T11:11:37;8.57;;;5.30;;
9809;SDS011;4944;52.514;13.192;2022-07-21T11:14:06;6.43;;;5.05;;
9809;SDS011;4944;52.514;13.192;2022-07-21T11:19:28;7.00;;;5.40;;
9809;SDS011;4944;52.514;13.192;2022-07-21T11:21:59;7.57;;;5.22;;
9809;SDS011;4944;52.514;13.192;2022-07-21T11:24:27;9.15;;;5.60;;
9809;SDS011;4944;52.514;13.192;2022-07-21T11:26:56;8.88;;;5.57;;
9809;SDS011;4944;52.514;13.192;2022-07-21T11:29:24;8.57;;;5.10;;
9809;SDS011;4944;52.514;13.192;2022-07-21T11:31:51;7.95;;;5.22;;
9809;SDS011;4944;52.514;13.192;2022-07-21T11:34:19;7.13;;;5.20;;
9809;SDS011;4944;52.514;13.192;2022-07-21T11:36:46;6.00;;;5.50;;
9809;SDS011;4944;52.514;13.192;2022-07-21T11:39:14;5.95;;;4.97;;
9809;SDS011;4944;52.514;13.192;2022-07-21T11:41:44;8.93;;;4.90;;
9809;SDS011;4944;52.514;13.192;2022-07-21T11:44:12;6.30;;;5.07;;
9809;SDS011;4944;52.514;13.192;2022-07-21T11:46:51;5.35;;;4.55;;
9809;SDS011;4944;52.514;13.192;2022-07-21T11:49:19;7.68;;;4.80;;
9809;SDS011;4944;52.514;13.192;2022-07-21T11:51:49;5.68;;;4.50;;
9809;SDS011;4944;52.514;13.192;2022-07-21T11:54:23;5.90;;;5.18;;
9809;SDS011;4944;52.514;13.192;2022-07-21T11:56:52;8.15;;;4.43;;
9809;SDS011;4944;52.514;13.192;2022-07-21T11:59:21;4.90;;;4.50;;
9809;SDS011;4944;52.514;13.192;2022-07-21T12:01:52;8.55;;;4.72;;
9809;SDS011;4944;52.514;13.192;2022-07-21T12:07:14;9.10;;;4.55;;
9809;SDS011;4944;52.514;13.192;2022-07-21T12:09:44;6.90;;;4.97;;
9809;SDS011;4944;52.514;13.192;2022-07-21T12:12:13;6.10;;;4.72;;
9809;SDS011;4944;52.514;13.192;2022-07-21T12:14:45;6.22;;;5.00;;
9809;SDS011;4944;52.514;13.192;2022-07-21T12:17:15;5.75;;;5.25;;
9809;SDS011;4944;52.514;13.192;2022-07-21T12:19:43;7.80;;;5.72;;
9809;SDS011;4944;52.514;13.192;2022-07-21T12:22:10;7.53;;;5.40;;
9809;SDS011;4944;52.514;13.192;2022-07-21T12:24:48;7.18;;;5.13;;
9809;SDS011;4944;52.514;13.192;2022-07-21T12:27:20;7.00;;;6.03;;
9809;SDS011;4944;52.514;13.192;2022-07-21T12:29:48;5.65;;;5.25;;
9809;SDS011;4944;52.514;13.192;2022-07-21T12:35:15;9.65;;;6.10;;
9809;SDS011;4944;52.514;13.192;2022-07-21T12:37:51;7.10;;;5.93;;
9809;SDS011;4944;52.514;13.192;2022-07-21T12:40:26;6.95;;;5.55;;
9809;SDS011;4944;52.514;13.192;2022-07-21T12:43:04;8.60;;;6.00;;
9809;SDS011;4944;52.514;13.192;2022-07-21T12:45:54;6.85;;;6.18;;
9809;SDS011;4944;52.514;13.192;2022-07-21T12:48:23;9.02;;;6.45;;
9809;SDS011;4944;52.514;13.192;2022-07-21T12:51:10;8.75;;;6.05;;
9809;SDS011;4944;52.514;13.192;2022-07-21T12:53:40;7.65;;;6.45;;
9809;SDS011;4944;52.514;13.192;2022-07-21T12:56:10;10.30;;;6.05;;
9809;SDS011;4944;52.514;13.192;2022-07-21T12:58:38;6.95;;;6.13;;
9809;SDS011;4944;52.514;13.192;2022-07-21T13:01:06;9.90;;;6.40;;
9809;SDS011;4944;52.514;13.192;2022-07-21T13:03:34;10.35;;;7.20;;
9809;SDS011;4944;52.514;13.192;2022-07-21T13:06:02;7.15;;;6.20;;
9809;SDS011;4944;52.514;13.192;2022-07-21T13:08:32;6.50;;;5.90;;
9809;SDS011;4944;52.514;13.192;2022-07-21T13:10:59;6.65;;;6.05;;
9809;SDS011;4944;52.514;13.192;2022-07-21T13:13:26;7.45;;;5.90;;
9809;SDS011;4944;52.514;13.192;2022-07-21T13:15:54;6.95;;;5.95;;
9809;SDS011;4944;52.514;13.192;2022-07-21T13:18:22;6.45;;;5.78;;
9809;SDS011;4944;52.514;13.192;2022-07-21T13:20:50;6.75;;;5.43;;
9809;SDS011;4944;52.514;13.192;2022-07-21T13:23:17;5.60;;;5.20;;
9809;SDS011;4944;52.514;13.192;2022-07-21T13:25:44;5.40;;;5.10;;
9809;SDS011;4944;52.514;13.192;2022-07-21T13:28:11;5.10;;;4.80;;
9809;SDS011;4944;52.514;13.192;2022-07-21T13:30:38;5.93;;;5.30;;
9809;SDS011;4944;52.514;13.192;2022-07-21T13:33:05;5.60;;;5.10;;
9809;SDS011;4944;52.514;13.192;2022-07-21T13:35:33;11.32;;;5.07;;
9809;SDS011;4944;52.514;13.192;2022-07-21T13:37:59;6.07;;;5.43;;
9809;SDS011;4944;52.514;13.192;2022-07-21T13:40:27;5.38;;;4.85;;
9809;SDS011;4944;52.514;13.192;2022-07-21T13:42:54;5.78;;;5.28;;
9809;SDS011;4944;52.514;13.192;2022-07-21T13:45:21;6.63;;;5.53;;
9809;SDS011;4944;52.514;13.192;2022-07-21T13:47:48;5.85;;;5.35;;
9809;SDS011;4944;52.514;13.192;2022-07-21T13:50:16;6.38;;;5.75;;
9809;SDS011;4944;52.514;13.192;2022-07-21T13:52:44;5.43;;;5.00;;
9809;SDS011;4944;52.514;13.192;2022-07-21T13:55:11;5.05;;;4.65;;
9809;SDS011;4944;52.514;13.192;2022-07-21T13:57:40;5.32;;;4.93;;
9809;SDS011;4944;52.514;13.192;2022-07-21T14:00:07;5.45;;;5.00;;
9809;SDS011;4944;52.514;13.192;2022-07-21T14:02:35;5.35;;;4.95;;
9809;SDS011;4944;52.514;13.192;2022-07-21T14:05:04;5.60;;;5.20;;
9809;SDS011;4944;52.514;13.192;2022-07-21T14:07:31;4.95;;;4.55;;
9809;SDS011;4944;52.514;13.192;2022-07-21T14:09:59;4.78;;;4.47;;
9809;SDS011;4944;52.514;13.192;2022-07-21T14:12:26;5.45;;;5.07;;
9809;SDS011;4944;52.514;13.192;2022-07-21T14:14:53;5.35;;;4.95;;
9809;SDS011;4944;52.514;13.192;2022-07-21T14:17:20;5.05;;;4.60;;
9809;SDS011;4944;52.514;13.192;2022-07-21T14:19:47;14.02;;;5.35;;
9809;SDS011;4944;52.514;13.192;2022-07-21T14:22:14;5.53;;;5.10;;
9809;SDS011;4944;52.514;13.192;2022-07-21T14:24:41;5.97;;;5.38;;
9809;SDS011;4944;52.514;13.192;2022-07-21T14:27:29;5.38;;;5.07;;
9809;SDS011;4944;52.514;13.192;2022-07-21T14:29:56;5.15;;;4.85;;
9809;SDS011;4944;52.514;13.192;2022-07-21T14:32:23;5.55;;;5.15;;
9809;SDS011;4944;52.514;13.192;2022-07-21T14:34:50;5.80;;;5.30;;
9809;SDS011;4944;52.514;13.192;2022-07-21T14:37:18;5.25;;;4.78;;
9809;SDS011;4944;52.514;13.192;2022-07-21T14:39:46;5.65;;;5.13;;
9809;SDS011;4944;52.514;13.192;2022-07-21T14:42:13;5.88;;;5.32;;
9809;SDS011;4944;52.514;13.192;2022-07-21T14:44:42;5.25;;;4.95;;
9809;SDS011;4944;52.514;13.192;2022-07-21T14:47:10;5.18;;;4.70;;
9809;SDS011;4944;52.514;13.192;2022-07-21T14:49:37;5.78;;;5.28;;
9809;SDS011;4944;52.514;13.192;2022-07-21T14:52:04;6.05;;;5.40;;
9809;SDS011;4944;52.514;13.192;2022-07-21T14:54:31;5.78;;;5.20;;
9809;SDS011;4944;52.514;13.192;2022-07-21T14:56:58;5.97;;;5.15;;
9809;SDS011;4944;52.514;13.192;2022-07-21T14:59:25;5.43;;;4.95;;
9809;SDS011;4944;52.514;13.192;2022-07-21T15:01:53;5.97;;;5.47;;
9809;SDS011;4944;52.514;13.192;2022-07-21T15:04:20;6.35;;;5.20;;
9809;SDS011;4944;52.514;13.192;2022-07-21T15:06:47;5.65;;;5.25;;
9809;SDS011;4944;52.514;13.192;2022-07-21T15:09:15;5.88;;;5.40;;
9809;SDS011;4944;52.514;13.192;2022-07-21T15:11:42;8.50;;;7.85;;
9809;SDS011;4944;52.514;13.192;2022-07-21T15:14:09;7.32;;;6.28;;
9809;SDS011;4944;52.514;13.192;2022-07-21T15:16:36;6.22;;;5.65;;
9809;SDS011;4944;52.514;13.192;2022-07-21T15:19:04;6.43;;;5.72;;
9809;SDS011;4944;52.514;13.192;2022-07-21T15:21:31;6.18;;;5.78;;